Terminal Aerodrome Forecast
Issued by NWS

Home | Current Version | Previous Version | Text Only | Print | Product List | Glossary On
Versions: 1 2 3 4 5 6 7 8 9 10 11 12 13 14 15 16 17 18 19 20
499
FTUS43 KSGF 252034 AAC
TAFJLN
TAF AMD
KJLN 252034Z 2521/2618 25012KT P6SM OVC010
     FM260000 23006KT P6SM OVC015
     FM260600 VRB03KT P6SM OVC008
     FM261200 25004KT P6SM BKN015
     FM261700 23006KT P6SM SCT100=

USA.gov is the U.S. government's official web portal to all federal, state and local government web resources and services.